Portada
METAR-TAF:

METAR-TAF

Aeroports :

Terol, Espanya

latitud: 40-24-43N, longitud: 01-13-03W, altitud: 1030 m

Observació

L'informe es va fer fa 36 minuts, a les 07:00 UTC
Vent 5 kt del Est/Sud-Est, variant entre Est i Sud/Sud-Est
Temperatura 16°C
Humitat 68%
Pressió 1020 hPa
Visibilitat 10 km o més
pluja

METAR: LETL 250700Z AUTO 12005KT 080V150 9999 -RA NSC 16/10 Q1020

Hora: 09:36 (07:36 UTC)


TAF: manca

Observacions i pronòstics meteorològics de més de 4000 aeroports (METAR i TAF).

Les estacions disponibles són els punts grocs i vermells al mapa.

Posi el ratolí al punt desitjat per veure el nom de l'estació.

Feu clic per veure les observacions i els pronòstics meteorològics.

Per canviar el mapa: feu clic els botons verds amb una creu de color negre per apropar; al botó verd amb un guió per allunyar la imatge; o en les fletxes verdes per a mapes adjacents.


METAR-TAF: